Middletown, VA (22645)

1:44 PM EDT on July 28, 2016 (GMT -0400)
Lake John Estates | | Change Station

Elev 574 ft 38.99 °N, 78.27 °W | Updated 4 minutes ago

Clear
Clear
91.5 °F
Feels Like 107 °F
N
2.5
Wind Variable Wind from ESE
Gusts 4.7 mph

Today
High -- | Low -- °F
--% Chance of Precip.
Yesterday
High -- | Low -- °F
Precip. -- in
Pressure 29.90 in
Visibility 10.0 miles
Clouds Clear
Heat Index 107 °F
Dew Point 78 °F
Humidity 65%
Rainfall 0.00 in
Snow Depth Not available.
6:10 AM 8:27 PM
Waning Crescent, 30% visible
METAR KOKV 281735Z AUTO 08003KT 10SM CLR 31/20 A2990 RMK AO2 LTG DSNT W THRU NE
Pressure 29.90 in
Visibility 10.0 miles
Clouds Clear
Heat Index 107 °F
Dew Point 78 °F
Humidity 65%
Rainfall 0.00 in
Snow Depth Not available.
6:10 AM 8:27 PM
Waning Crescent, 30% visible
METAR KOKV 281735Z AUTO 08003KT 10SM CLR 31/20 A2990 RMK AO2 LTG DSNT W THRU NE

10-Day Weather Forecast

Almanac

Astronomy

Jul. 28, 2016 Rise Set
Actual Time
Civil Twilight
Nautical Twilight
Astronomical Twilight
Moon
Length of Visible Light
Length of Day
Tomorrow will be .
, % of the Moon is Illuminated

Today's Extremes

State Highs State Lows

Community

WunderPhotos

Upload Photos

1,928,163 photos uploaded!

WunderBlog® & News

Nearby

Air Quality

  Air Quality AQ Index Pollutant
Not available.

Snow Depth

Station Depth Elevation

Earthquake Activity

City Distance Mag. Time & Date
Minimum magnitude displayed is 2.5.

Coastal Water Temperatures

Place Temperature

Stations

Nearby Weather Stations

Station Location Temp. Windchill Dew Point Humidity Wind Precip. Elev Updated Type
                   

Watches & Warnings

Severe Thunderstorm Watch
Issued: 1:43 PM EDT Jul. 28, 2016 – National Weather Service

Severe Thunderstorm Watch 418 remains in effect until 1200 am EDT

VA
. Virginia counties included are

Albemarle Arlington Augusta
Clarke Culpeper Fairfax
Fauquier Frederick Greene
Highland King George Loudoun
Madison Nelson Orange
Page Prince William Rappahannock
Rockingham Shenandoah Spotsylvania
Stafford Warren


Virginia independent cities included are

Alexandria Charlottesville Fairfax
Falls church Fredericksburg Harrisonburg
Manassas Manassas Park Staunton
Waynesboro Winchester